sensor_id;sensor_type;location;lat;lon;timestamp;P1;durP1;ratioP1;P2;durP2;ratioP2
74510;SDS011;62991;50.040;18.400;2022-09-12T00:00:32;8.85;;;4.57;;
74510;SDS011;62991;50.040;18.400;2022-09-12T00:03:32;9.75;;;4.35;;
74510;SDS011;62991;50.040;18.400;2022-09-12T00:06:34;10.57;;;4.07;;
74510;SDS011;62991;50.040;18.400;2022-09-12T00:09:36;8.15;;;3.53;;
74510;SDS011;62991;50.040;18.400;2022-09-12T00:12:37;7.38;;;3.72;;
74510;SDS011;62991;50.040;18.400;2022-09-12T00:15:41;7.43;;;4.00;;
74510;SDS011;62991;50.040;18.400;2022-09-12T00:18:43;9.77;;;4.32;;
74510;SDS011;62991;50.040;18.400;2022-09-12T00:21:45;9.43;;;4.25;;
74510;SDS011;62991;50.040;18.400;2022-09-12T00:24:46;10.52;;;4.35;;
74510;SDS011;62991;50.040;18.400;2022-09-12T00:27:47;11.45;;;4.43;;
74510;SDS011;62991;50.040;18.400;2022-09-12T00:30:47;9.20;;;4.47;;
74510;SDS011;62991;50.040;18.400;2022-09-12T00:33:48;9.68;;;5.00;;
74510;SDS011;62991;50.040;18.400;2022-09-12T00:36:50;8.88;;;4.35;;
74510;SDS011;62991;50.040;18.400;2022-09-12T00:39:51;9.88;;;4.93;;
74510;SDS011;62991;50.040;18.400;2022-09-12T00:42:52;10.38;;;4.43;;
74510;SDS011;62991;50.040;18.400;2022-09-12T00:45:52;6.90;;;3.38;;
74510;SDS011;62991;50.040;18.400;2022-09-12T00:53:11;13.32;;;4.57;;
74510;SDS011;62991;50.040;18.400;2022-09-12T00:56:11;11.23;;;4.07;;
74510;SDS011;62991;50.040;18.400;2022-09-12T00:59:19;10.43;;;5.05;;
74510;SDS011;62991;50.040;18.400;2022-09-12T01:02:23;10.43;;;4.05;;
74510;SDS011;62991;50.040;18.400;2022-09-12T01:05:25;9.93;;;4.55;;
74510;SDS011;62991;50.040;18.400;2022-09-12T01:08:27;10.90;;;4.97;;
74510;SDS011;62991;50.040;18.400;2022-09-12T01:11:29;11.98;;;4.25;;
74510;SDS011;62991;50.040;18.400;2022-09-12T01:14:31;8.32;;;3.85;;
74510;SDS011;62991;50.040;18.400;2022-09-12T01:17:37;8.55;;;4.53;;
74510;SDS011;62991;50.040;18.400;2022-09-12T01:24:51;8.35;;;4.15;;
74510;SDS011;62991;50.040;18.400;2022-09-12T01:31:27;9.48;;;4.82;;
74510;SDS011;62991;50.040;18.400;2022-09-12T01:34:48;9.48;;;4.85;;
74510;SDS011;62991;50.040;18.400;2022-09-12T01:38:22;12.23;;;5.80;;
74510;SDS011;62991;50.040;18.400;2022-09-12T01:45:16;9.90;;;4.93;;
74510;SDS011;62991;50.040;18.400;2022-09-12T01:48:28;10.05;;;4.18;;
74510;SDS011;62991;50.040;18.400;2022-09-12T01:51:54;8.55;;;4.47;;
74510;SDS011;62991;50.040;18.400;2022-09-12T01:55:15;11.40;;;4.75;;
74510;SDS011;62991;50.040;18.400;2022-09-12T01:58:25;13.65;;;5.97;;
74510;SDS011;62991;50.040;18.400;2022-09-12T02:01:34;14.25;;;5.72;;
74510;SDS011;62991;50.040;18.400;2022-09-12T02:04:45;10.65;;;5.47;;
74510;SDS011;62991;50.040;18.400;2022-09-12T02:08:12;14.73;;;5.30;;
74510;SDS011;62991;50.040;18.400;2022-09-12T02:11:19;13.80;;;6.18;;
74510;SDS011;62991;50.040;18.400;2022-09-12T02:14:22;15.57;;;7.50;;
74510;SDS011;62991;50.040;18.400;2022-09-12T02:17:37;14.27;;;6.55;;
74510;SDS011;62991;50.040;18.400;2022-09-12T02:20:41;11.05;;;5.43;;
74510;SDS011;62991;50.040;18.400;2022-09-12T02:23:45;15.35;;;6.25;;
74510;SDS011;62991;50.040;18.400;2022-09-12T02:26:49;13.15;;;6.55;;
74510;SDS011;62991;50.040;18.400;2022-09-12T02:29:55;14.50;;;6.07;;
74510;SDS011;62991;50.040;18.400;2022-09-12T02:33:17;10.35;;;4.65;;
74510;SDS011;62991;50.040;18.400;2022-09-12T02:36:41;10.30;;;4.57;;
74510;SDS011;62991;50.040;18.400;2022-09-12T02:39:53;12.13;;;5.07;;
74510;SDS011;62991;50.040;18.400;2022-09-12T02:42:56;9.48;;;4.13;;
74510;SDS011;62991;50.040;18.400;2022-09-12T02:45:57;9.40;;;4.80;;
74510;SDS011;62991;50.040;18.400;2022-09-12T02:48:58;17.95;;;5.13;;
74510;SDS011;62991;50.040;18.400;2022-09-12T02:51:59;12.68;;;5.28;;
74510;SDS011;62991;50.040;18.400;2022-09-12T02:55:02;11.02;;;5.40;;
74510;SDS011;62991;50.040;18.400;2022-09-12T02:58:05;11.75;;;5.20;;
74510;SDS011;62991;50.040;18.400;2022-09-12T03:01:18;11.75;;;5.45;;
74510;SDS011;62991;50.040;18.400;2022-09-12T03:27:53;17.10;;;6.97;;
74510;SDS011;62991;50.040;18.400;2022-09-12T03:30:58;12.57;;;5.28;;
74510;SDS011;62991;50.040;18.400;2022-09-12T03:33:59;9.80;;;5.18;;
74510;SDS011;62991;50.040;18.400;2022-09-12T03:37:00;11.77;;;4.97;;
74510;SDS011;62991;50.040;18.400;2022-09-12T03:40:02;8.82;;;4.72;;
74510;SDS011;62991;50.040;18.400;2022-09-12T03:43:04;12.82;;;4.80;;
74510;SDS011;62991;50.040;18.400;2022-09-12T03:46:07;10.05;;;4.88;;
74510;SDS011;62991;50.040;18.400;2022-09-12T03:49:07;9.68;;;4.43;;
74510;SDS011;62991;50.040;18.400;2022-09-12T03:52:09;12.90;;;4.85;;
74510;SDS011;62991;50.040;18.400;2022-09-12T03:55:10;11.70;;;5.38;;
74510;SDS011;62991;50.040;18.400;2022-09-12T03:58:11;13.07;;;5.32;;
74510;SDS011;62991;50.040;18.400;2022-09-12T04:01:13;10.32;;;4.82;;
74510;SDS011;62991;50.040;18.400;2022-09-12T04:04:16;11.80;;;4.93;;
74510;SDS011;62991;50.040;18.400;2022-09-12T04:07:17;8.60;;;4.57;;
74510;SDS011;62991;50.040;18.400;2022-09-12T04:10:18;11.80;;;5.03;;
74510;SDS011;62991;50.040;18.400;2022-09-12T04:13:18;8.68;;;3.60;;
74510;SDS011;62991;50.040;18.400;2022-09-12T04:16:19;9.43;;;4.18;;
74510;SDS011;62991;50.040;18.400;2022-09-12T04:19:20;9.93;;;3.97;;
74510;SDS011;62991;50.040;18.400;2022-09-12T04:22:21;11.30;;;4.15;;
74510;SDS011;62991;50.040;18.400;2022-09-12T04:25:22;8.23;;;3.95;;
74510;SDS011;62991;50.040;18.400;2022-09-12T04:28:23;8.50;;;3.85;;
74510;SDS011;62991;50.040;18.400;2022-09-12T04:31:24;10.35;;;4.38;;
74510;SDS011;62991;50.040;18.400;2022-09-12T04:34:25;11.20;;;5.00;;
74510;SDS011;62991;50.040;18.400;2022-09-12T04:40:30;8.15;;;4.72;;
74510;SDS011;62991;50.040;18.400;2022-09-12T04:43:32;10.35;;;4.07;;
74510;SDS011;62991;50.040;18.400;2022-09-12T04:46:34;14.02;;;4.30;;
74510;SDS011;62991;50.040;18.400;2022-09-12T04:49:37;8.43;;;4.50;;
74510;SDS011;62991;50.040;18.400;2022-09-12T04:52:38;10.20;;;3.70;;
74510;SDS011;62991;50.040;18.400;2022-09-12T04:55:39;10.48;;;4.85;;
74510;SDS011;62991;50.040;18.400;2022-09-12T04:58:39;11.88;;;6.40;;
74510;SDS011;62991;50.040;18.400;2022-09-12T05:01:41;12.27;;;5.25;;
74510;SDS011;62991;50.040;18.400;2022-09-12T05:04:42;10.05;;;4.57;;
74510;SDS011;62991;50.040;18.400;2022-09-12T05:07:43;10.60;;;5.28;;
74510;SDS011;62991;50.040;18.400;2022-09-12T05:10:43;9.70;;;4.55;;
74510;SDS011;62991;50.040;18.400;2022-09-12T05:13:44;7.35;;;4.43;;
74510;SDS011;62991;50.040;18.400;2022-09-12T05:16:45;7.35;;;3.90;;
74510;SDS011;62991;50.040;18.400;2022-09-12T05:19:46;10.50;;;4.40;;
74510;SDS011;62991;50.040;18.400;2022-09-12T05:22:47;8.73;;;3.53;;
74510;SDS011;62991;50.040;18.400;2022-09-12T05:25:51;10.35;;;3.65;;
74510;SDS011;62991;50.040;18.400;2022-09-12T05:28:54;8.25;;;3.92;;
74510;SDS011;62991;50.040;18.400;2022-09-12T05:31:54;9.45;;;4.30;;
74510;SDS011;62991;50.040;18.400;2022-09-12T05:34:55;14.10;;;4.65;;
74510;SDS011;62991;50.040;18.400;2022-09-12T05:37:56;11.65;;;5.38;;
74510;SDS011;62991;50.040;18.400;2022-09-12T05:41:07;8.18;;;4.30;;
74510;SDS011;62991;50.040;18.400;2022-09-12T05:44:10;11.50;;;4.03;;
74510;SDS011;62991;50.040;18.400;2022-09-12T05:47:13;10.32;;;3.97;;
74510;SDS011;62991;50.040;18.400;2022-09-12T05:50:13;9.30;;;3.58;;
74510;SDS011;62991;50.040;18.400;2022-09-12T05:53:14;9.35;;;3.53;;
74510;SDS011;62991;50.040;18.400;2022-09-12T05:56:17;8.73;;;4.03;;
74510;SDS011;62991;50.040;18.400;2022-09-12T05:59:19;8.13;;;3.53;;
74510;SDS011;62991;50.040;18.400;2022-09-12T06:02:20;6.90;;;3.00;;
74510;SDS011;62991;50.040;18.400;2022-09-12T06:05:21;6.43;;;3.22;;
74510;SDS011;62991;50.040;18.400;2022-09-12T06:08:22;6.40;;;3.13;;
74510;SDS011;62991;50.040;18.400;2022-09-12T06:11:23;11.48;;;5.55;;
74510;SDS011;62991;50.040;18.400;2022-09-12T06:14:25;11.15;;;5.35;;
74510;SDS011;62991;50.040;18.400;2022-09-12T06:17:26;4.80;;;2.60;;
74510;SDS011;62991;50.040;18.400;2022-09-12T06:20:27;6.93;;;3.17;;
74510;SDS011;62991;50.040;18.400;2022-09-12T06:23:28;10.98;;;3.30;;
74510;SDS011;62991;50.040;18.400;2022-09-12T06:26:29;5.20;;;2.83;;
74510;SDS011;62991;50.040;18.400;2022-09-12T06:29:30;6.03;;;2.92;;
74510;SDS011;62991;50.040;18.400;2022-09-12T06:32:31;5.82;;;2.70;;
74510;SDS011;62991;50.040;18.400;2022-09-12T06:35:36;7.13;;;2.80;;
74510;SDS011;62991;50.040;18.400;2022-09-12T06:38:38;6.25;;;3.08;;
74510;SDS011;62991;50.040;18.400;2022-09-12T06:41:39;7.53;;;3.33;;
74510;SDS011;62991;50.040;18.400;2022-09-12T06:44:40;8.30;;;3.42;;
74510;SDS011;62991;50.040;18.400;2022-09-12T06:47:40;6.45;;;3.22;;
74510;SDS011;62991;50.040;18.400;2022-09-12T06:50:41;5.82;;;2.65;;
74510;SDS011;62991;50.040;18.400;2022-09-12T06:53:42;5.60;;;2.78;;
74510;SDS011;62991;50.040;18.400;2022-09-12T06:56:44;4.80;;;2.47;;
74510;SDS011;62991;50.040;18.400;2022-09-12T06:59:45;4.97;;;2.88;;
74510;SDS011;62991;50.040;18.400;2022-09-12T07:02:45;8.10;;;3.97;;
74510;SDS011;62991;50.040;18.400;2022-09-12T07:05:46;7.28;;;4.07;;
74510;SDS011;62991;50.040;18.400;2022-09-12T07:08:47;13.52;;;4.00;;
74510;SDS011;62991;50.040;18.400;2022-09-12T07:11:48;7.85;;;2.97;;
74510;SDS011;62991;50.040;18.400;2022-09-12T07:14:48;4.65;;;2.13;;
74510;SDS011;62991;50.040;18.400;2022-09-12T07:17:49;6.20;;;3.05;;
74510;SDS011;62991;50.040;18.400;2022-09-12T07:20:50;7.40;;;3.65;;
74510;SDS011;62991;50.040;18.400;2022-09-12T07:23:51;8.70;;;3.20;;
74510;SDS011;62991;50.040;18.400;2022-09-12T07:26:54;6.85;;;3.33;;
74510;SDS011;62991;50.040;18.400;2022-09-12T07:29:55;5.10;;;2.80;;
74510;SDS011;62991;50.040;18.400;2022-09-12T07:32:55;9.10;;;2.50;;
74510;SDS011;62991;50.040;18.400;2022-09-12T07:35:59;4.97;;;2.20;;
74510;SDS011;62991;50.040;18.400;2022-09-12T07:39:02;5.75;;;2.70;;
74510;SDS011;62991;50.040;18.400;2022-09-12T07:42:03;9.30;;;4.22;;
74510;SDS011;62991;50.040;18.400;2022-09-12T07:45:04;6.32;;;3.47;;
74510;SDS011;62991;50.040;18.400;2022-09-12T07:48:05;6.40;;;2.90;;
74510;SDS011;62991;50.040;18.400;2022-09-12T07:51:07;5.28;;;2.70;;
74510;SDS011;62991;50.040;18.400;2022-09-12T07:54:09;7.55;;;3.13;;
74510;SDS011;62991;50.040;18.400;2022-09-12T07:57:10;7.95;;;3.38;;
74510;SDS011;62991;50.040;18.400;2022-09-12T08:00:11;4.35;;;2.30;;
74510;SDS011;62991;50.040;18.400;2022-09-12T08:03:12;6.70;;;2.72;;
74510;SDS011;62991;50.040;18.400;2022-09-12T08:06:14;6.05;;;2.70;;
74510;SDS011;62991;50.040;18.400;2022-09-12T08:09:19;7.82;;;2.83;;
74510;SDS011;62991;50.040;18.400;2022-09-12T08:12:19;3.67;;;2.28;;
74510;SDS011;62991;50.040;18.400;2022-09-12T08:15:20;4.85;;;2.72;;
74510;SDS011;62991;50.040;18.400;2022-09-12T08:18:21;4.57;;;2.65;;
74510;SDS011;62991;50.040;18.400;2022-09-12T08:21:24;7.20;;;3.17;;
74510;SDS011;62991;50.040;18.400;2022-09-12T08:24:26;5.05;;;2.55;;
74510;SDS011;62991;50.040;18.400;2022-09-12T08:27:26;6.50;;;2.78;;
74510;SDS011;62991;50.040;18.400;2022-09-12T08:30:27;8.45;;;3.13;;
74510;SDS011;62991;50.040;18.400;2022-09-12T08:33:28;4.57;;;2.53;;
74510;SDS011;62991;50.040;18.400;2022-09-12T08:39:34;5.50;;;2.90;;
74510;SDS011;62991;50.040;18.400;2022-09-12T08:42:42;9.48;;;4.68;;
74510;SDS011;62991;50.040;18.400;2022-09-12T08:45:51;8.25;;;4.55;;
74510;SDS011;62991;50.040;18.400;2022-09-12T08:48:58;4.57;;;2.90;;
74510;SDS011;62991;50.040;18.400;2022-09-12T08:52:21;5.63;;;2.33;;
74510;SDS011;62991;50.040;18.400;2022-09-12T08:55:24;6.65;;;2.75;;
74510;SDS011;62991;50.040;18.400;2022-09-12T08:58:35;5.43;;;2.25;;
74510;SDS011;62991;50.040;18.400;2022-09-12T09:01:43;6.80;;;4.10;;
74510;SDS011;62991;50.040;18.400;2022-09-12T09:04:50;3.67;;;2.20;;
74510;SDS011;62991;50.040;18.400;2022-09-12T09:18:07;4.72;;;2.58;;
74510;SDS011;62991;50.040;18.400;2022-09-12T09:21:26;5.78;;;2.58;;
74510;SDS011;62991;50.040;18.400;2022-09-12T09:24:33;5.15;;;2.63;;
74510;SDS011;62991;50.040;18.400;2022-09-12T09:27:56;6.13;;;2.70;;
74510;SDS011;62991;50.040;18.400;2022-09-12T09:31:01;6.78;;;2.88;;
74510;SDS011;62991;50.040;18.400;2022-09-12T09:34:04;5.63;;;2.75;;
74510;SDS011;62991;50.040;18.400;2022-09-12T09:37:37;3.83;;;2.22;;
74510;SDS011;62991;50.040;18.400;2022-09-12T09:44:27;7.53;;;2.45;;
74510;SDS011;62991;50.040;18.400;2022-09-12T09:47:28;2.83;;;1.80;;
74510;SDS011;62991;50.040;18.400;2022-09-12T09:50:29;4.22;;;2.05;;
74510;SDS011;62991;50.040;18.400;2022-09-12T09:56:52;4.97;;;2.10;;
74510;SDS011;62991;50.040;18.400;2022-09-12T09:59:52;3.65;;;1.20;;
74510;SDS011;62991;50.040;18.400;2022-09-12T10:06:05;4.32;;;1.50;;
74510;SDS011;62991;50.040;18.400;2022-09-12T10:09:21;4.50;;;1.90;;
74510;SDS011;62991;50.040;18.400;2022-09-12T10:12:26;5.35;;;1.95;;
74510;SDS011;62991;50.040;18.400;2022-09-12T10:15:27;3.10;;;1.50;;
74510;SDS011;62991;50.040;18.400;2022-09-12T10:18:41;4.40;;;1.77;;
74510;SDS011;62991;50.040;18.400;2022-09-12T10:21:46;3.97;;;1.60;;
74510;SDS011;62991;50.040;18.400;2022-09-12T10:24:52;2.53;;;1.45;;
74510;SDS011;62991;50.040;18.400;2022-09-12T10:27:58;2.97;;;1.95;;
74510;SDS011;62991;50.040;18.400;2022-09-12T10:30:59;4.50;;;1.92;;
74510;SDS011;62991;50.040;18.400;2022-09-12T10:34:01;3.55;;;2.00;;
74510;SDS011;62991;50.040;18.400;2022-09-12T10:37:05;5.38;;;2.05;;
74510;SDS011;62991;50.040;18.400;2022-09-12T10:40:19;3.20;;;1.77;;
74510;SDS011;62991;50.040;18.400;2022-09-12T10:43:28;2.35;;;1.40;;
74510;SDS011;62991;50.040;18.400;2022-09-12T10:49:34;4.03;;;1.70;;
74510;SDS011;62991;50.040;18.400;2022-09-12T10:55:40;5.85;;;1.65;;
74510;SDS011;62991;50.040;18.400;2022-09-12T11:02:26;3.08;;;2.00;;
74510;SDS011;62991;50.040;18.400;2022-09-12T11:12:05;2.72;;;1.80;;
74510;SDS011;62991;50.040;18.400;2022-09-12T11:18:52;5.25;;;2.45;;
74510;SDS011;62991;50.040;18.400;2022-09-12T11:35:24;4.72;;;2.22;;
74510;SDS011;62991;50.040;18.400;2022-09-12T11:41:36;4.93;;;2.10;;
74510;SDS011;62991;50.040;18.400;2022-09-12T11:44:41;6.63;;;2.20;;
74510;SDS011;62991;50.040;18.400;2022-09-12T11:47:51;2.97;;;1.80;;
74510;SDS011;62991;50.040;18.400;2022-09-12T11:50:54;9.43;;;3.35;;
74510;SDS011;62991;50.040;18.400;2022-09-12T11:54:01;3.58;;;1.80;;
74510;SDS011;62991;50.040;18.400;2022-09-12T12:00:27;3.20;;;1.92;;
74510;SDS011;62991;50.040;18.400;2022-09-12T12:03:35;3.58;;;1.58;;
74510;SDS011;62991;50.040;18.400;2022-09-12T12:06:46;2.78;;;1.50;;
74510;SDS011;62991;50.040;18.400;2022-09-12T12:09:49;6.75;;;2.10;;
74510;SDS011;62991;50.040;18.400;2022-09-12T12:12:51;3.60;;;1.67;;
74510;SDS011;62991;50.040;18.400;2022-09-12T12:15:55;2.75;;;1.55;;
74510;SDS011;62991;50.040;18.400;2022-09-12T12:19:00;3.13;;;1.70;;
74510;SDS011;62991;50.040;18.400;2022-09-12T12:22:16;3.28;;;1.55;;
74510;SDS011;62991;50.040;18.400;2022-09-12T12:25:21;3.80;;;1.65;;
74510;SDS011;62991;50.040;18.400;2022-09-12T12:35:35;4.88;;;1.58;;
74510;SDS011;62991;50.040;18.400;2022-09-12T12:38:38;3.92;;;1.60;;
74510;SDS011;62991;50.040;18.400;2022-09-12T12:41:42;4.47;;;2.17;;
74510;SDS011;62991;50.040;18.400;2022-09-12T12:47:50;2.25;;;1.38;;
74510;SDS011;62991;50.040;18.400;2022-09-12T12:54:26;4.72;;;2.30;;
74510;SDS011;62991;50.040;18.400;2022-09-12T12:57:44;4.63;;;2.15;;
74510;SDS011;62991;50.040;18.400;2022-09-12T13:00:48;7.68;;;3.22;;
74510;SDS011;62991;50.040;18.400;2022-09-12T13:04:24;4.55;;;1.92;;
74510;SDS011;62991;50.040;18.400;2022-09-12T13:07:37;4.57;;;2.20;;
74510;SDS011;62991;50.040;18.400;2022-09-12T13:10:39;3.60;;;1.65;;
74510;SDS011;62991;50.040;18.400;2022-09-12T13:13:57;3.10;;;1.65;;
74510;SDS011;62991;50.040;18.400;2022-09-12T13:17:01;2.25;;;1.27;;
74510;SDS011;62991;50.040;18.400;2022-09-12T13:23:22;4.80;;;2.03;;
74510;SDS011;62991;50.040;18.400;2022-09-12T13:26:27;2.50;;;1.40;;
74510;SDS011;62991;50.040;18.400;2022-09-12T13:29:33;5.53;;;2.65;;
74510;SDS011;62991;50.040;18.400;2022-09-12T13:32:34;5.07;;;1.70;;
74510;SDS011;62991;50.040;18.400;2022-09-12T13:35:40;2.75;;;1.42;;
74510;SDS011;62991;50.040;18.400;2022-09-12T13:42:01;12.20;;;3.53;;
74510;SDS011;62991;50.040;18.400;2022-09-12T13:45:19;12.98;;;4.45;;
74510;SDS011;62991;50.040;18.400;2022-09-12T13:48:25;4.90;;;1.92;;
74510;SDS011;62991;50.040;18.400;2022-09-12T13:51:28;4.13;;;1.35;;
74510;SDS011;62991;50.040;18.400;2022-09-12T13:54:30;2.30;;;1.50;;
74510;SDS011;62991;50.040;18.400;2022-09-12T13:57:36;2.97;;;1.48;;
74510;SDS011;62991;50.040;18.400;2022-09-12T14:00:40;3.58;;;1.40;;
74510;SDS011;62991;50.040;18.400;2022-09-12T14:03:41;5.82;;;1.80;;
74510;SDS011;62991;50.040;18.400;2022-09-12T14:10:18;4.28;;;1.67;;
74510;SDS011;62991;50.040;18.400;2022-09-12T14:13:23;7.85;;;2.00;;
74510;SDS011;62991;50.040;18.400;2022-09-12T14:16:25;3.22;;;1.70;;
74510;SDS011;62991;50.040;18.400;2022-09-12T14:19:28;3.67;;;1.70;;
74510;SDS011;62991;50.040;18.400;2022-09-12T14:22:29;2.70;;;1.65;;
74510;SDS011;62991;50.040;18.400;2022-09-12T14:25:37;2.97;;;1.80;;
74510;SDS011;62991;50.040;18.400;2022-09-12T14:28:43;3.20;;;1.90;;
74510;SDS011;62991;50.040;18.400;2022-09-12T14:31:58;3.95;;;2.17;;
74510;SDS011;62991;50.040;18.400;2022-09-12T14:41:28;2.97;;;1.63;;
74510;SDS011;62991;50.040;18.400;2022-09-12T14:44:35;3.83;;;1.83;;
74510;SDS011;62991;50.040;18.400;2022-09-12T14:47:37;5.32;;;1.70;;
74510;SDS011;62991;50.040;18.400;2022-09-12T14:50:41;5.13;;;2.00;;
74510;SDS011;62991;50.040;18.400;2022-09-12T14:53:45;3.20;;;1.80;;
74510;SDS011;62991;50.040;18.400;2022-09-12T15:03:49;3.05;;;1.88;;
74510;SDS011;62991;50.040;18.400;2022-09-12T15:06:50;3.95;;;1.92;;
74510;SDS011;62991;50.040;18.400;2022-09-12T15:09:51;4.20;;;1.83;;
74510;SDS011;62991;50.040;18.400;2022-09-12T15:16:08;3.10;;;1.70;;
74510;SDS011;62991;50.040;18.400;2022-09-12T15:19:10;3.72;;;2.10;;
74510;SDS011;62991;50.040;18.400;2022-09-12T15:22:11;5.25;;;2.05;;
74510;SDS011;62991;50.040;18.400;2022-09-12T15:25:13;3.88;;;1.88;;
74510;SDS011;62991;50.040;18.400;2022-09-12T15:28:17;4.60;;;2.13;;
74510;SDS011;62991;50.040;18.400;2022-09-12T15:31:24;4.35;;;2.25;;
74510;SDS011;62991;50.040;18.400;2022-09-12T15:34:27;5.60;;;2.25;;
74510;SDS011;62991;50.040;18.400;2022-09-12T15:37:27;4.15;;;2.22;;
74510;SDS011;62991;50.040;18.400;2022-09-12T15:40:28;6.00;;;2.22;;
74510;SDS011;62991;50.040;18.400;2022-09-12T15:43:29;8.93;;;3.53;;
74510;SDS011;62991;50.040;18.400;2022-09-12T15:46:30;5.47;;;2.30;;
74510;SDS011;62991;50.040;18.400;2022-09-12T15:49:30;4.72;;;2.03;;
74510;SDS011;62991;50.040;18.400;2022-09-12T15:52:31;7.15;;;2.45;;
74510;SDS011;62991;50.040;18.400;2022-09-12T15:55:32;5.95;;;3.15;;
74510;SDS011;62991;50.040;18.400;2022-09-12T15:58:33;6.60;;;2.63;;
74510;SDS011;62991;50.040;18.400;2022-09-12T16:01:33;5.85;;;2.80;;
74510;SDS011;62991;50.040;18.400;2022-09-12T16:04:34;18.45;;;6.18;;
74510;SDS011;62991;50.040;18.400;2022-09-12T16:07:35;51.72;;;16.92;;
74510;SDS011;62991;50.040;18.400;2022-09-12T16:10:36;12.38;;;5.72;;
74510;SDS011;62991;50.040;18.400;2022-09-12T16:13:36;9.15;;;2.70;;
74510;SDS011;62991;50.040;18.400;2022-09-12T16:16:37;12.60;;;3.47;;
74510;SDS011;62991;50.040;18.400;2022-09-12T16:19:38;6.55;;;3.20;;
74510;SDS011;62991;50.040;18.400;2022-09-12T16:22:39;6.75;;;2.88;;
74510;SDS011;62991;50.040;18.400;2022-09-12T16:25:40;8.35;;;3.00;;
74510;SDS011;62991;50.040;18.400;2022-09-12T16:28:41;5.25;;;2.60;;
74510;SDS011;62991;50.040;18.400;2022-09-12T16:31:42;6.78;;;2.50;;
74510;SDS011;62991;50.040;18.400;2022-09-12T16:34:43;5.45;;;2.40;;
74510;SDS011;62991;50.040;18.400;2022-09-12T16:37:44;5.85;;;2.47;;
74510;SDS011;62991;50.040;18.400;2022-09-12T16:40:45;5.40;;;2.38;;
74510;SDS011;62991;50.040;18.400;2022-09-12T16:43:46;5.05;;;2.45;;
74510;SDS011;62991;50.040;18.400;2022-09-12T16:46:47;4.57;;;2.47;;
74510;SDS011;62991;50.040;18.400;2022-09-12T16:49:49;5.28;;;2.70;;
74510;SDS011;62991;50.040;18.400;2022-09-12T16:52:50;5.20;;;2.50;;
74510;SDS011;62991;50.040;18.400;2022-09-12T16:55:51;7.38;;;2.40;;
74510;SDS011;62991;50.040;18.400;2022-09-12T16:58:51;5.95;;;2.13;;
74510;SDS011;62991;50.040;18.400;2022-09-12T17:01:52;4.10;;;2.30;;
74510;SDS011;62991;50.040;18.400;2022-09-12T17:04:53;3.83;;;2.17;;
74510;SDS011;62991;50.040;18.400;2022-09-12T17:07:54;3.30;;;2.13;;
74510;SDS011;62991;50.040;18.400;2022-09-12T17:11:02;6.28;;;2.53;;
74510;SDS011;62991;50.040;18.400;2022-09-12T17:17:07;6.10;;;3.20;;
74510;SDS011;62991;50.040;18.400;2022-09-12T17:20:08;6.65;;;2.90;;
74510;SDS011;62991;50.040;18.400;2022-09-12T17:23:08;6.22;;;3.42;;
74510;SDS011;62991;50.040;18.400;2022-09-12T17:26:10;7.45;;;3.00;;
74510;SDS011;62991;50.040;18.400;2022-09-12T17:29:11;8.05;;;4.22;;
74510;SDS011;62991;50.040;18.400;2022-09-12T17:32:12;10.20;;;5.18;;
74510;SDS011;62991;50.040;18.400;2022-09-12T17:35:13;10.43;;;4.70;;
74510;SDS011;62991;50.040;18.400;2022-09-12T17:38:14;16.55;;;5.22;;
74510;SDS011;62991;50.040;18.400;2022-09-12T17:41:19;16.65;;;5.57;;
74510;SDS011;62991;50.040;18.400;2022-09-12T17:44:21;13.85;;;5.40;;
74510;SDS011;62991;50.040;18.400;2022-09-12T17:47:23;9.38;;;4.43;;
74510;SDS011;62991;50.040;18.400;2022-09-12T17:50:24;10.68;;;4.22;;
74510;SDS011;62991;50.040;18.400;2022-09-12T17:53:24;8.27;;;4.53;;
74510;SDS011;62991;50.040;18.400;2022-09-12T17:56:26;9.23;;;3.67;;
74510;SDS011;62991;50.040;18.400;2022-09-12T17:59:28;11.68;;;4.28;;
74510;SDS011;62991;50.040;18.400;2022-09-12T18:02:29;8.45;;;4.10;;
74510;SDS011;62991;50.040;18.400;2022-09-12T18:05:29;7.53;;;3.83;;
74510;SDS011;62991;50.040;18.400;2022-09-12T18:08:30;6.50;;;3.47;;
74510;SDS011;62991;50.040;18.400;2022-09-12T18:11:31;8.50;;;4.00;;
74510;SDS011;62991;50.040;18.400;2022-09-12T18:14:32;8.30;;;3.65;;
74510;SDS011;62991;50.040;18.400;2022-09-12T18:17:33;7.82;;;4.30;;
74510;SDS011;62991;50.040;18.400;2022-09-12T18:20:34;8.90;;;4.05;;
74510;SDS011;62991;50.040;18.400;2022-09-12T18:23:35;9.65;;;4.65;;
74510;SDS011;62991;50.040;18.400;2022-09-12T18:26:36;12.13;;;5.72;;
74510;SDS011;62991;50.040;18.400;2022-09-12T18:29:37;11.68;;;5.63;;
74510;SDS011;62991;50.040;18.400;2022-09-12T18:32:38;14.98;;;5.25;;
74510;SDS011;62991;50.040;18.400;2022-09-12T18:35:39;12.80;;;5.40;;
74510;SDS011;62991;50.040;18.400;2022-09-12T18:38:40;13.98;;;5.97;;
74510;SDS011;62991;50.040;18.400;2022-09-12T18:41:41;14.02;;;6.82;;
74510;SDS011;62991;50.040;18.400;2022-09-12T18:44:42;13.45;;;6.90;;
74510;SDS011;62991;50.040;18.400;2022-09-12T18:47:43;17.02;;;7.80;;
74510;SDS011;62991;50.040;18.400;2022-09-12T18:50:43;21.63;;;8.80;;
74510;SDS011;62991;50.040;18.400;2022-09-12T18:53:52;22.42;;;8.88;;
74510;SDS011;62991;50.040;18.400;2022-09-12T18:56:55;24.00;;;10.57;;
74510;SDS011;62991;50.040;18.400;2022-09-12T18:59:55;29.98;;;10.77;;
74510;SDS011;62991;50.040;18.400;2022-09-12T19:02:58;28.75;;;13.07;;
74510;SDS011;62991;50.040;18.400;2022-09-12T19:05:59;32.78;;;14.88;;
74510;SDS011;62991;50.040;18.400;2022-09-12T19:09:00;30.63;;;12.07;;
74510;SDS011;62991;50.040;18.400;2022-09-12T19:12:01;25.15;;;11.15;;
74510;SDS011;62991;50.040;18.400;2022-09-12T19:15:02;29.10;;;11.70;;
74510;SDS011;62991;50.040;18.400;2022-09-12T19:18:04;24.45;;;10.65;;
74510;SDS011;62991;50.040;18.400;2022-09-12T19:21:05;28.20;;;12.27;;
74510;SDS011;62991;50.040;18.400;2022-09-12T19:24:07;29.15;;;12.43;;
74510;SDS011;62991;50.040;18.400;2022-09-12T19:27:09;27.00;;;10.95;;
74510;SDS011;62991;50.040;18.400;2022-09-12T19:30:12;24.90;;;11.00;;
74510;SDS011;62991;50.040;18.400;2022-09-12T19:33:12;16.08;;;8.48;;
74510;SDS011;62991;50.040;18.400;2022-09-12T19:36:14;21.40;;;9.20;;
74510;SDS011;62991;50.040;18.400;2022-09-12T19:42:18;16.05;;;7.68;;
74510;SDS011;62991;50.040;18.400;2022-09-12T19:45:19;15.70;;;8.48;;
74510;SDS011;62991;50.040;18.400;2022-09-12T19:48:20;19.60;;;8.32;;
74510;SDS011;62991;50.040;18.400;2022-09-12T19:51:21;15.05;;;7.10;;
74510;SDS011;62991;50.040;18.400;2022-09-12T19:54:23;17.50;;;8.23;;
74510;SDS011;62991;50.040;18.400;2022-09-12T19:57:23;11.32;;;6.43;;
74510;SDS011;62991;50.040;18.400;2022-09-12T20:00:24;16.08;;;7.53;;
74510;SDS011;62991;50.040;18.400;2022-09-12T20:03:25;14.93;;;7.47;;
74510;SDS011;62991;50.040;18.400;2022-09-12T20:06:26;17.13;;;7.60;;
74510;SDS011;62991;50.040;18.400;2022-09-12T20:09:27;25.33;;;10.00;;
74510;SDS011;62991;50.040;18.400;2022-09-12T20:12:28;28.67;;;10.68;;
74510;SDS011;62991;50.040;18.400;2022-09-12T20:15:28;22.88;;;8.50;;
74510;SDS011;62991;50.040;18.400;2022-09-12T20:18:30;31.05;;;11.48;;
74510;SDS011;62991;50.040;18.400;2022-09-12T20:21:31;19.70;;;9.45;;
74510;SDS011;62991;50.040;18.400;2022-09-12T20:24:33;21.08;;;7.70;;
74510;SDS011;62991;50.040;18.400;2022-09-12T20:27:33;13.52;;;7.25;;
74510;SDS011;62991;50.040;18.400;2022-09-12T20:30:34;19.45;;;7.68;;
74510;SDS011;62991;50.040;18.400;2022-09-12T20:33:35;11.27;;;6.10;;